createdAt,value
2023-04-11T00:01:00.076Z,100236.98
2023-04-11T00:03:05.736Z,100240.16
2023-04-11T00:05:11.342Z,100235.08
2023-04-11T00:07:16.370Z,100230.92
2023-04-11T00:09:21.412Z,100227.34
2023-04-11T00:11:26.441Z,100225.38
2023-04-11T00:13:31.678Z,100222.44
2023-04-11T00:15:36.717Z,100225.08
2023-04-11T00:17:41.990Z,100223.35
2023-04-11T00:19:47.092Z,100217.14
2023-04-11T00:21:52.145Z,100223.6
2023-04-11T00:23:57.231Z,100220.36
2023-04-11T00:26:02.334Z,100219.16
2023-04-11T00:28:07.457Z,100214.41
2023-04-11T00:30:12.656Z,100206.22
2023-04-11T00:32:17.742Z,100197.35
2023-04-11T00:34:22.792Z,100202.86
2023-04-11T00:36:28.106Z,100198.77
2023-04-11T00:38:33.332Z,100196.83
2023-04-11T00:40:38.425Z,100196.39
2023-04-11T00:42:43.557Z,100193.72
2023-04-11T00:44:48.584Z,100192.43
2023-04-11T00:46:53.640Z,100187.72
2023-04-11T00:48:59.165Z,100185.91
2023-04-11T00:51:04.210Z,100185.16
2023-04-11T00:53:09.217Z,100178.72
2023-04-11T00:55:14.260Z,100173.31
2023-04-11T00:57:19.318Z,100169.13
2023-04-11T00:59:24.363Z,100165.86
2023-04-11T01:01:29.558Z,100163.58
2023-04-11T01:03:34.961Z,100162.95
2023-04-11T01:05:40.430Z,100163.11
2023-04-11T01:07:45.539Z,100162.72
2023-04-11T01:09:50.670Z,100162.84
2023-04-11T01:11:55.856Z,100158.05
2023-04-11T01:14:00.882Z,100156.48
2023-04-11T01:16:05.909Z,100154.22
2023-04-11T01:18:11.130Z,100149.09
2023-04-11T01:20:16.182Z,100149.23
2023-04-11T01:22:21.266Z,100140.52
2023-04-11T01:24:26.309Z,100140.13
2023-04-11T01:26:31.395Z,100141.16
2023-04-11T01:28:36.551Z,100141.75
2023-04-11T01:30:41.706Z,100140.75
2023-04-11T01:32:47.069Z,100138.39
2023-04-11T01:34:52.176Z,100138.46
2023-04-11T01:36:57.199Z,100133.38
2023-04-11T01:39:02.207Z,100130.23
2023-04-11T01:41:07.281Z,100117.73
2023-04-11T01:43:12.352Z,100111.2
2023-04-11T01:45:17.522Z,100111.26
2023-04-11T01:47:22.806Z,100108.09
2023-04-11T01:49:27.887Z,100101.86
2023-04-11T01:51:32.959Z,100092.58
2023-04-11T01:53:38.124Z,100091.42
2023-04-11T01:55:43.153Z,100082.81
2023-04-11T01:57:48.243Z,100083.02
2023-04-11T01:59:53.315Z,100086.2
2023-04-11T02:01:58.613Z,100081.05
2023-04-11T02:04:04.067Z,100079.84
2023-04-11T02:06:09.298Z,100080.98
2023-04-11T02:08:14.382Z,100078.22
2023-04-11T02:10:19.391Z,100071.45
2023-04-11T02:12:24.441Z,100068.2
2023-04-11T02:14:29.562Z,100064.67
2023-04-11T02:16:34.576Z,100055.61
2023-04-11T02:18:39.674Z,100052.44
2023-04-11T02:20:44.789Z,100043.48
2023-04-11T02:22:49.808Z,100040.08
2023-04-11T02:24:54.885Z,100033.86
2023-04-11T02:26:59.893Z,100031.13
2023-04-11T02:29:04.974Z,100025.62
2023-04-11T02:31:10.222Z,100025.22
2023-04-11T02:33:15.559Z,100023.14
2023-04-11T02:35:20.765Z,100022.43
2023-04-11T02:37:25.805Z,100023.16
2023-04-11T02:39:30.811Z,100022.05
2023-04-11T02:41:35.871Z,100023.53
2023-04-11T02:43:40.942Z,100028.61
2023-04-11T02:45:46.043Z,100031.66
2023-04-11T02:47:51.233Z,100037.12
2023-04-11T02:49:56.366Z,100042.05
2023-04-11T02:52:01.417Z,100032.45
2023-04-11T02:54:06.501Z,100027.39
2023-04-11T02:56:11.523Z,100023.95
2023-04-11T02:58:16.558Z,100016.88
2023-04-11T03:00:21.926Z,100009.88
2023-04-11T03:02:27.576Z,100005.77
2023-04-11T03:04:33.265Z,100008.81
2023-04-11T03:06:38.453Z,99998.26
2023-04-11T03:08:43.498Z,99998.39
2023-04-11T03:10:48.575Z,100000.14
2023-04-11T03:12:53.666Z,99999.61
2023-04-11T03:14:58.748Z,99997.3
2023-04-11T03:17:03.780Z,99999.28
2023-04-11T03:19:08.808Z,99995.97
2023-04-11T03:21:13.946Z,99992.41
2023-04-11T03:23:18.976Z,99986.59
2023-04-11T03:25:24.058Z,99985.69
2023-04-11T03:27:29.141Z,99979.37
2023-04-11T03:29:34.158Z,99980.99
2023-04-11T03:31:39.246Z,99971.8
2023-04-11T03:33:44.329Z,99970.3
2023-04-11T03:35:49.376Z,99968.73
2023-04-11T03:37:54.444Z,99972.32
2023-04-11T03:39:59.510Z,99962.72
2023-04-11T03:42:04.525Z,99959.45
2023-04-11T03:44:09.589Z,99951.26
2023-04-11T03:46:20.906Z,99950.27
2023-04-11T03:48:26.017Z,99945.97
2023-04-11T03:50:31.105Z,99940.27
2023-04-11T03:52:36.237Z,99936.35
2023-04-11T03:54:41.319Z,99935
2023-04-11T03:56:46.332Z,99936.5
2023-04-11T03:58:51.327Z,99934.94
2023-04-11T04:00:56.445Z,99927.48
2023-04-11T04:03:01.831Z,99924.02
2023-04-11T04:05:07.657Z,99923.77
2023-04-11T04:07:13.016Z,99924.23
2023-04-11T04:09:18.040Z,99921.86
2023-04-11T04:11:23.092Z,99922.3
2023-04-11T04:13:28.093Z,99914.5
2023-04-11T04:15:33.103Z,99914.58
2023-04-11T04:17:38.195Z,99915.97
2023-04-11T04:19:43.241Z,99923.52
2023-04-11T04:21:48.303Z,99924.31
2023-04-11T04:23:53.466Z,99926.74
2023-04-11T04:25:58.893Z,99932.15
2023-04-11T04:28:04.000Z,99940.41
2023-04-11T04:30:08.963Z,99935.61
2023-04-11T04:32:14.000Z,99934.77
2023-04-11T04:34:18.976Z,99931.64
2023-04-11T04:36:23.953Z,99927.84
2023-04-11T04:38:29.097Z,99920.67
2023-04-11T04:40:34.121Z,99916.25
2023-04-11T04:42:39.169Z,99906.81
2023-04-11T04:44:44.170Z,99902.22
2023-04-11T04:46:49.167Z,99898.53
2023-04-11T04:48:54.175Z,99901.95
2023-04-11T04:50:59.264Z,99895.67
2023-04-11T04:53:04.299Z,99892.11
2023-04-11T04:55:09.284Z,99896.92
2023-04-11T04:57:14.370Z,99896.25
2023-04-11T04:59:19.357Z,99899.73
2023-04-11T05:01:24.446Z,99901.48
2023-04-11T05:03:29.976Z,99899.56
2023-04-11T05:05:35.195Z,99892.68
2023-04-11T05:07:40.152Z,99891.89
2023-04-11T05:09:45.196Z,99884.81
2023-04-11T05:11:50.215Z,99878.6
2023-04-11T05:13:55.843Z,99876.73
2023-04-11T05:16:01.539Z,99868.94
2023-04-11T05:18:06.625Z,99859.19
2023-04-11T05:20:11.891Z,99856
2023-04-11T05:22:16.942Z,99852.23
2023-04-11T05:24:21.928Z,99855.17
2023-04-11T05:26:26.952Z,99847.72
2023-04-11T05:28:31.981Z,99845.97
2023-04-11T05:30:37.071Z,99831.47
2023-04-11T05:32:42.343Z,99827.28
2023-04-11T05:34:47.557Z,99818.22
2023-04-11T05:36:52.586Z,99814.55
2023-04-11T05:38:57.630Z,99804.78
2023-04-11T05:41:02.646Z,99798.3
2023-04-11T05:43:07.719Z,99792.26
2023-04-11T05:45:12.869Z,99792.57
2023-04-11T05:47:17.986Z,99789.82
2023-04-11T05:49:23.108Z,99781.89
2023-04-11T05:51:28.215Z,99779.06
2023-04-11T05:53:33.356Z,99769.78
2023-04-11T05:55:38.366Z,99768.61
2023-04-11T05:57:43.415Z,99765.3
2023-04-11T05:59:48.412Z,99764.66
2023-04-11T06:01:53.450Z,99764.56
2023-04-11T06:03:59.680Z,99759.2
2023-04-11T06:06:05.588Z,99753.53
2023-04-11T06:08:10.686Z,99748.23
2023-04-11T06:10:15.765Z,99752.33
2023-04-11T06:12:20.788Z,99743.47
2023-04-11T06:14:25.766Z,99743.41
2023-04-11T06:16:30.821Z,99745.07
2023-04-11T06:18:35.987Z,99744.34
2023-04-11T06:20:41.123Z,99749.89
2023-04-11T06:22:46.133Z,99750.76
2023-04-11T06:24:51.106Z,99754.03
2023-04-11T06:26:56.097Z,99753.17
2023-04-11T06:29:01.084Z,99751.71
2023-04-11T06:31:06.220Z,99743.39
2023-04-11T06:33:11.675Z,99739.73
2023-04-11T06:35:16.789Z,99738.41
2023-04-11T06:37:21.766Z,99732.34
2023-04-11T06:39:26.758Z,99723.39
2023-04-11T06:41:31.771Z,99723.29
2023-04-11T06:43:36.797Z,99717.98
2023-04-11T06:45:41.886Z,99717.27
2023-04-11T06:47:47.008Z,99712.02
2023-04-11T06:49:52.260Z,99707.81
2023-04-11T06:51:57.301Z,99704.63
2023-04-11T06:54:02.337Z,99703.22
2023-04-11T06:56:07.375Z,99708.05
2023-04-11T06:58:12.445Z,99704.67
2023-04-11T07:00:17.419Z,99712.05
2023-04-11T07:02:22.685Z,99705.14
2023-04-11T07:04:28.268Z,99705.8
2023-04-11T07:06:33.552Z,99704.03
2023-04-11T07:08:38.568Z,99701.82
2023-04-11T07:10:43.531Z,99705.75
2023-04-11T07:12:48.600Z,99710.95
2023-04-11T07:14:53.592Z,99709.48
2023-04-11T07:16:58.565Z,99715.38
2023-04-11T07:19:03.724Z,99718.9
2023-04-11T07:21:08.712Z,99709.2
2023-04-11T07:23:13.766Z,99710.66
2023-04-11T07:25:18.786Z,99702.69
2023-04-11T07:27:23.948Z,99704.64
2023-04-11T07:29:28.931Z,99701.23
2023-04-11T07:31:34.031Z,99700.47
2023-04-11T07:33:39.228Z,99700.58
2023-04-11T07:35:44.328Z,99690.44
2023-04-11T07:37:49.500Z,99690.03
2023-04-11T07:39:54.465Z,99685.55
2023-04-11T07:41:59.497Z,99684.55
2023-04-11T07:44:04.607Z,99678.16
2023-04-11T07:46:09.713Z,99670.8
2023-04-11T07:48:14.821Z,99666.92
2023-04-11T07:50:19.864Z,99668.24
2023-04-11T07:52:24.948Z,99664.69
2023-04-11T07:54:30.061Z,99661.48
2023-04-11T07:56:35.111Z,99663.05
2023-04-11T07:58:40.133Z,99657.28
2023-04-11T08:00:45.261Z,99663.75
2023-04-11T08:02:50.601Z,99657.97
2023-04-11T08:04:56.403Z,99652.18
2023-04-11T08:07:01.705Z,99651.19
2023-04-11T08:09:06.791Z,99643.53
2023-04-11T08:11:11.825Z,99637.83
2023-04-11T08:13:16.865Z,99633.89
2023-04-11T08:15:21.830Z,99627.94
2023-04-11T08:17:29.894Z,99631.98
2023-04-11T08:19:35.198Z,99619.43
2023-04-11T08:21:40.199Z,99626.11
2023-04-11T08:23:45.308Z,99623.67
2023-04-11T08:25:51.226Z,99615.2
2023-04-11T08:27:56.221Z,99612.71
2023-04-11T08:30:01.242Z,99614.08
2023-04-11T08:32:06.217Z,99608.35
2023-04-11T08:34:11.242Z,99613.55
2023-04-11T08:36:16.590Z,99601.9
2023-04-11T08:38:21.789Z,99602.59
2023-04-11T08:40:28.375Z,99596.25
2023-04-11T08:42:33.529Z,99590.59
2023-04-11T08:44:38.513Z,99582.36
2023-04-11T08:46:43.545Z,99578.99
2023-04-11T08:48:48.616Z,99582.12
2023-04-11T08:50:53.704Z,99583.59
2023-04-11T08:52:58.688Z,99579.59
2023-04-11T08:55:03.732Z,99576.75
2023-04-11T08:57:08.736Z,99573.77
2023-04-11T08:59:13.725Z,99585.8
2023-04-11T09:01:18.747Z,99582.07
2023-04-11T09:03:24.184Z,99573.18
2023-04-11T09:05:29.392Z,99570.86
2023-04-11T09:07:34.355Z,99566.73
2023-04-11T09:09:39.372Z,99562.97
2023-04-11T09:11:44.370Z,99567.62
2023-04-11T09:13:49.394Z,99567.52
2023-04-11T09:15:54.582Z,99569.46
2023-04-11T09:18:02.212Z,99572.73
2023-04-11T09:20:07.256Z,99568.45
2023-04-11T09:22:12.225Z,99549.72
2023-04-11T09:24:17.208Z,99554.31
2023-04-11T09:26:24.383Z,99540.63
2023-04-11T09:28:29.332Z,99539.66
2023-04-11T09:30:34.299Z,99533.14
2023-04-11T09:32:39.501Z,99532.16
2023-04-11T09:34:44.506Z,99527.98
2023-04-11T09:36:49.501Z,99520.5
2023-04-11T09:38:54.481Z,99519.13
2023-04-11T09:40:59.471Z,99514.66
2023-04-11T09:43:04.617Z,99511.64
2023-04-11T09:45:09.696Z,99511.6
2023-04-11T09:47:14.844Z,99513.88
2023-04-11T09:49:19.934Z,99513.63
2023-04-11T09:51:37.369Z,99520.09
2023-04-11T09:53:42.513Z,99522.86
2023-04-11T09:55:47.524Z,99524.66
2023-04-11T09:57:52.572Z,99519.16
2023-04-11T09:59:57.552Z,99517.16
2023-04-11T10:02:02.713Z,99524.45
2023-04-11T10:04:08.077Z,99521.91
2023-04-11T10:06:13.077Z,99537.17
2023-04-11T10:08:18.130Z,99534.34
2023-04-11T10:10:23.162Z,99532.34
2023-04-11T10:12:28.223Z,99533.38
2023-04-11T10:14:33.203Z,99539.96
2023-04-11T10:16:38.397Z,99536.16
2023-04-11T10:18:43.513Z,99541.05
2023-04-11T10:20:48.550Z,99548.47
2023-04-11T10:22:53.533Z,99550.59
2023-04-11T10:24:58.515Z,99548.87
2023-04-11T10:27:03.606Z,99550.25
2023-04-11T10:29:08.679Z,99553.84
2023-04-11T10:31:13.837Z,99557.42
2023-04-11T10:33:21.847Z,99556.4
2023-04-11T10:35:26.852Z,99560.14
2023-04-11T10:37:32.146Z,99560.78
2023-04-11T10:39:37.194Z,99565.09
2023-04-11T10:41:42.144Z,99562.23
2023-04-11T10:43:47.168Z,99565.26
2023-04-11T10:45:52.266Z,99566.13
2023-04-11T10:47:57.471Z,99562.42
2023-04-11T10:50:02.613Z,99561.09
2023-04-11T10:52:07.551Z,99565.5
2023-04-11T10:54:12.468Z,99563.91
2023-04-11T10:56:17.909Z,99561.04
2023-04-11T10:58:22.946Z,99568.19
2023-04-11T11:00:28.033Z,99575.73
2023-04-11T11:02:34.249Z,99580.04
2023-04-11T11:04:40.157Z,99587.3
2023-04-11T11:06:57.266Z,99587.34
2023-04-11T11:09:02.595Z,99592.98
2023-04-11T11:11:07.694Z,99587.89
2023-04-11T11:13:12.677Z,99591.63
2023-04-11T11:15:17.682Z,99585.44
2023-04-11T11:17:22.775Z,99596.84
2023-04-11T11:19:27.902Z,99599.89
2023-04-11T11:21:32.893Z,99606.68
2023-04-11T11:23:38.162Z,99605.41
2023-04-11T11:25:43.174Z,99622.03
2023-04-11T11:27:48.186Z,99624.44
2023-04-11T11:29:53.439Z,99620.34
2023-04-11T11:31:59.057Z,99610.61
2023-04-11T11:34:24.306Z,99621.63
2023-04-11T11:36:29.420Z,99631.47
2023-04-11T11:38:34.454Z,99631.68
2023-04-11T11:40:39.492Z,99636.37
2023-04-11T11:42:44.612Z,99632.18
2023-04-11T11:44:49.714Z,99634.86
2023-04-11T11:46:54.808Z,99625.17
2023-04-11T11:49:00.548Z,99626.09
2023-04-11T11:51:06.187Z,99622.8
2023-04-11T11:53:11.333Z,99631.91
2023-04-11T11:55:16.339Z,99634.95
2023-04-11T11:57:21.395Z,99636.25
2023-04-11T11:59:26.802Z,99636.31
2023-04-11T12:01:31.871Z,99640.34
2023-04-11T12:03:37.110Z,99642.28
2023-04-11T12:05:42.384Z,99646.09
2023-04-11T12:07:47.316Z,99649.14
2023-04-11T12:09:52.356Z,99651.14
2023-04-11T12:11:57.708Z,99658.5
2023-04-11T12:14:02.713Z,99652.66
2023-04-11T12:16:07.959Z,99648.17
2023-04-11T12:18:13.205Z,99644.8
2023-04-11T12:20:18.481Z,99652.83
2023-04-11T12:22:23.539Z,99651.98
2023-04-11T12:24:28.562Z,99654.69
2023-04-11T12:26:33.615Z,99653.4
2023-04-11T12:28:38.882Z,99647.03
2023-04-11T12:30:44.022Z,99648.83
2023-04-11T12:32:49.188Z,99650.04
2023-04-11T12:34:54.658Z,99644.52
2023-04-11T12:36:59.686Z,99641.98
2023-04-11T12:39:04.689Z,99639.31
2023-04-11T12:41:32.812Z,99635.19
2023-04-11T12:43:37.874Z,99631.5
2023-04-11T12:45:42.921Z,99633.18
2023-04-11T12:47:48.281Z,99631.58
2023-04-11T12:49:53.487Z,99633.28
2023-04-11T12:51:58.486Z,99626.86
2023-04-11T12:54:03.476Z,99623.77
2023-04-11T12:56:08.517Z,99618.78
2023-04-11T12:58:13.517Z,99612.56
2023-04-11T13:00:18.617Z,99600.97
2023-04-11T13:02:24.082Z,99589.39
2023-04-11T13:04:29.772Z,99586.48
2023-04-11T13:06:34.894Z,99586.2
2023-04-11T13:08:39.909Z,99583.63
2023-04-11T13:10:44.902Z,99586.28
2023-04-11T13:12:49.878Z,99591.2
2023-04-11T13:14:54.924Z,99595.36
2023-04-11T13:16:59.885Z,99593.08
2023-04-11T13:19:04.888Z,99595.01
2023-04-11T13:21:09.959Z,99603.38
2023-04-11T13:23:17.808Z,99604.38
2023-04-11T13:25:22.820Z,99609.05
2023-04-11T13:27:27.858Z,99612.95
2023-04-11T13:29:32.938Z,99621.7
2023-04-11T13:31:38.081Z,99629.09
2023-04-11T13:33:43.176Z,99638.4
2023-04-11T13:35:48.202Z,99643.41
2023-04-11T13:37:53.229Z,99652.66
2023-04-11T13:39:58.240Z,99648.82
2023-04-11T13:42:03.283Z,99646.55
2023-04-11T13:44:08.375Z,99641.8
2023-04-11T13:46:13.583Z,99639.36
2023-04-11T13:48:18.745Z,99636.75
2023-04-11T13:50:23.758Z,99632.66
2023-04-11T13:52:28.747Z,99633.59
2023-04-11T13:54:33.836Z,99633.72
2023-04-11T13:56:39.375Z,99632.39
2023-04-11T13:58:44.410Z,99632.63
2023-04-11T14:00:49.604Z,99637.3
2023-04-11T14:02:55.118Z,99632.92
2023-04-11T14:05:00.627Z,99631.22
2023-04-11T14:07:05.600Z,99631.23
2023-04-11T14:09:10.573Z,99637.75
2023-04-11T14:11:15.570Z,99631.16
2023-04-11T14:13:20.600Z,99627.23
2023-04-11T14:15:25.622Z,99630.51
2023-04-11T14:17:30.711Z,99626.84
2023-04-11T14:19:35.776Z,99628.83
2023-04-11T14:21:41.091Z,99628.48
2023-04-11T14:23:46.097Z,99620.38
2023-04-11T14:25:51.111Z,99615.6
2023-04-11T14:27:56.137Z,99615.48
2023-04-11T14:30:01.173Z,99613.02
2023-04-11T14:32:06.619Z,99618.39
2023-04-11T14:34:11.819Z,99617.7
2023-04-11T14:36:16.803Z,99620.75
2023-04-11T14:38:21.801Z,99624.34
2023-04-11T14:40:26.969Z,99623.5
2023-04-11T14:42:31.991Z,99625.22
2023-04-11T14:44:36.980Z,99627.83
2023-04-11T14:46:42.111Z,99625.92
2023-04-11T14:48:47.374Z,99622.58
2023-04-11T14:50:52.384Z,99618.61
2023-04-11T14:52:57.404Z,99622.01
2023-04-11T14:55:02.425Z,99623.09
2023-04-11T14:57:07.409Z,99621.92
2023-04-11T14:59:12.537Z,99623
2023-04-11T15:01:17.675Z,99618.5
2023-04-11T15:03:23.102Z,99615.73
2023-04-11T15:05:28.439Z,99617.58
2023-04-11T15:07:33.466Z,99619.75
2023-04-11T15:09:38.469Z,99625.34
2023-04-11T15:11:43.504Z,99628.02
2023-04-11T15:13:48.470Z,99623.02
2023-04-11T15:15:53.592Z,99624.21
2023-04-11T15:17:58.875Z,99629.66
2023-04-11T15:20:04.278Z,99633.53
2023-04-11T15:22:09.350Z,99630.34
2023-04-11T15:24:14.347Z,99629.3
2023-04-11T15:26:19.333Z,99633.39
2023-04-11T15:28:24.373Z,99630.57
2023-04-11T15:30:29.388Z,99629.25
2023-04-11T15:32:34.510Z,99634.08
2023-04-11T15:34:39.611Z,99633.02
2023-04-11T15:36:44.588Z,99631.64
2023-04-11T15:38:49.611Z,99632.94
2023-04-11T15:40:54.687Z,99631.44
2023-04-11T15:42:59.682Z,99633.52
2023-04-11T15:45:04.751Z,99632.48
2023-04-11T15:47:09.988Z,99627.52
2023-04-11T15:49:15.298Z,99624.86
2023-04-11T15:51:20.345Z,99626.72
2023-04-11T15:53:25.384Z,99623.33
2023-04-11T15:55:30.356Z,99623.3
2023-04-11T15:57:35.379Z,99626.91
2023-04-11T15:59:40.367Z,99624.29
2023-04-11T16:01:45.563Z,99623.54
2023-04-11T16:03:51.060Z,99620.23
2023-04-11T16:05:56.344Z,99625.89
2023-04-11T16:08:01.390Z,99627.09
2023-04-11T16:10:06.569Z,99630.18
2023-04-11T16:12:11.575Z,99627.31
2023-04-11T16:14:16.606Z,99635.09
2023-04-11T16:16:21.670Z,99635.45
2023-04-11T16:18:26.799Z,99632.39
2023-04-11T16:20:31.783Z,99634.23
2023-04-11T16:22:36.726Z,99636.85
2023-04-11T16:24:41.746Z,99633
2023-04-11T16:26:46.916Z,99635.73
2023-04-11T16:28:51.918Z,99640.28
2023-04-11T16:30:58.406Z,99639.89
2023-04-11T16:33:03.535Z,99637.67
2023-04-11T16:35:08.799Z,99634.95
2023-04-11T16:37:14.357Z,99631.97
2023-04-11T16:39:19.470Z,99633.39
2023-04-11T16:41:24.652Z,99635.22
2023-04-11T16:43:29.843Z,99636.02
2023-04-11T16:45:34.985Z,99633.42
2023-04-11T16:47:40.190Z,99634.86
2023-04-11T16:49:47.117Z,99631.18
2023-04-11T16:51:52.252Z,99633.66
2023-04-11T16:53:57.825Z,99637.29
2023-04-11T16:56:03.096Z,99637.66
2023-04-11T16:58:08.107Z,99642.81
2023-04-11T17:00:13.119Z,99642.27
2023-04-11T17:02:18.330Z,99641.19
2023-04-11T17:04:23.914Z,99651.47
2023-04-11T17:06:29.254Z,99657.83
2023-04-11T17:08:34.264Z,99665.56
2023-04-11T17:10:39.413Z,99665.16
2023-04-11T17:12:44.485Z,99670.73
2023-04-11T17:14:49.485Z,99672.18
2023-04-11T17:16:54.633Z,99679.36
2023-04-11T17:18:59.720Z,99682.72
2023-04-11T17:21:04.834Z,99685.7
2023-04-11T17:23:09.856Z,99681.72
2023-04-11T17:25:14.902Z,99686.06
2023-04-11T17:27:19.982Z,99691.59
2023-04-11T17:29:25.045Z,99694.55
2023-04-11T17:31:30.347Z,99696.34
2023-04-11T17:33:35.599Z,99691.13
2023-04-11T17:35:40.738Z,99693
2023-04-11T17:37:45.884Z,99697.92
2023-04-11T17:39:50.895Z,99700.69
2023-04-11T17:41:55.949Z,99705.31
2023-04-11T17:44:01.500Z,99708.02
2023-04-11T17:46:06.626Z,99708.7
2023-04-11T17:48:11.961Z,99711.17
2023-04-11T17:50:17.146Z,99711.64
2023-04-11T17:52:22.156Z,99711.08
2023-04-11T17:54:30.068Z,99715.06
2023-04-11T17:56:35.213Z,99721.03
2023-04-11T17:58:40.262Z,99724.38
2023-04-11T18:00:57.178Z,99735.7
2023-04-11T18:03:02.700Z,99742.13
2023-04-11T18:05:24.160Z,99758.09
2023-04-11T18:07:30.182Z,99757.16
2023-04-11T18:09:35.263Z,99767.91
2023-04-11T18:11:40.312Z,99769.81
2023-04-11T18:13:47.087Z,99770.82
2023-04-11T18:15:54.682Z,99775.45
2023-04-11T18:17:59.913Z,99773.71
2023-04-11T18:20:05.099Z,99784.05
2023-04-11T18:22:10.206Z,99780.34
2023-04-11T18:24:15.213Z,99785.74
2023-04-11T18:26:20.210Z,99779.03
2023-04-11T18:28:25.235Z,99774.52
2023-04-11T18:30:30.297Z,99783.01
2023-04-11T18:32:47.018Z,99784.75
2023-04-11T18:34:55.250Z,99782.46
2023-04-11T18:37:00.286Z,99777.28
2023-04-11T18:39:05.605Z,99775.6
2023-04-11T18:41:11.146Z,99774.41
2023-04-11T18:43:16.261Z,99772.57
2023-04-11T18:45:21.353Z,99780.84
2023-04-11T18:47:26.992Z,99775.88
2023-04-11T18:49:33.111Z,99779
2023-04-11T18:51:38.155Z,99782.7
2023-04-11T18:53:43.176Z,99782.36
2023-04-11T18:55:48.210Z,99783.66
2023-04-11T18:57:59.845Z,99784.11
2023-04-11T19:00:13.094Z,99789.98
2023-04-11T19:02:22.802Z,99785.64
2023-04-11T19:04:29.167Z,99789.32
2023-04-11T19:06:34.572Z,99787.98
2023-04-11T19:08:39.607Z,99782.89
2023-04-11T19:10:44.796Z,99786.84
2023-04-11T19:12:49.934Z,99790.07
2023-04-11T19:14:57.343Z,99791.8
2023-04-11T19:17:02.457Z,99792.86
2023-04-11T19:19:07.568Z,99786.19
2023-04-11T19:21:12.600Z,99784.97
2023-04-11T19:23:17.640Z,99781.5
2023-04-11T19:25:22.722Z,99786.61
2023-04-11T19:27:27.815Z,99785.05
2023-04-11T19:29:32.941Z,99778.73
2023-04-11T19:31:38.079Z,99781.84
2023-04-11T19:33:43.326Z,99781.52
2023-04-11T19:35:48.400Z,99776.71
2023-04-11T19:37:53.561Z,99781.09
2023-04-11T19:39:58.643Z,99778.11
2023-04-11T19:42:03.666Z,99783.74
2023-04-11T19:44:08.712Z,99780.63
2023-04-11T19:46:13.917Z,99783.84
2023-04-11T19:48:19.055Z,99780.57
2023-04-11T19:50:24.155Z,99783.13
2023-04-11T19:52:29.193Z,99781.48
2023-04-11T19:54:34.233Z,99785.39
2023-04-11T19:56:39.231Z,99782.34
2023-04-11T19:58:44.321Z,99785.84
2023-04-11T20:00:49.440Z,99799.16
2023-04-11T20:02:54.997Z,99789.06
2023-04-11T20:05:00.494Z,99793.32
2023-04-11T20:07:05.592Z,99794.16
2023-04-11T20:09:10.653Z,99787.14
2023-04-11T20:11:15.844Z,99790.31
2023-04-11T20:13:20.864Z,99794.22
2023-04-11T20:15:25.956Z,99792.09
2023-04-11T20:17:31.141Z,99801.78
2023-04-11T20:19:36.319Z,99800.59
2023-04-11T20:21:41.380Z,99794.84
2023-04-11T20:23:46.396Z,99802.85
2023-04-11T20:25:51.443Z,99804.94
2023-04-11T20:27:56.482Z,99804.44
2023-04-11T20:30:01.594Z,99803.04
2023-04-11T20:32:06.607Z,99810.17
2023-04-11T20:34:11.890Z,99805.17
2023-04-11T20:36:17.540Z,99803.26
2023-04-11T20:38:22.626Z,99811
2023-04-11T20:40:27.628Z,99814.13
2023-04-11T20:42:32.711Z,99822.42
2023-04-11T20:44:37.685Z,99822.17
2023-04-11T20:46:42.895Z,99824.39
2023-04-11T20:48:48.082Z,99831.41
2023-04-11T20:50:53.154Z,99827.58
2023-04-11T20:52:58.199Z,99828.75
2023-04-11T20:55:03.236Z,99829.59
2023-04-11T20:57:08.264Z,99830.45
2023-04-11T20:59:13.382Z,99823.13
2023-04-11T21:01:18.498Z,99828.72
2023-04-11T21:03:23.993Z,99833.13
2023-04-11T21:05:29.265Z,99828.46
2023-04-11T21:07:34.462Z,99829.98
2023-04-11T21:09:39.445Z,99828.55
2023-04-11T21:11:44.479Z,99828.89
2023-04-11T21:13:49.460Z,99830.59
2023-04-11T21:15:54.532Z,99828.55
2023-04-11T21:17:59.819Z,99832.56
2023-04-11T21:20:04.970Z,99831.98
2023-04-11T21:22:10.023Z,99834.91
2023-04-11T21:24:15.008Z,99831.19
2023-04-11T21:26:20.153Z,99827.56
2023-04-11T21:28:25.298Z,99830.19
2023-04-11T21:30:30.280Z,99830.41
2023-04-11T21:32:35.484Z,99830.95
2023-04-11T21:34:40.561Z,99830.44
2023-04-11T21:36:45.579Z,99836.7
2023-04-11T21:38:50.649Z,99835.52
2023-04-11T21:40:55.640Z,99841.88
2023-04-11T21:43:00.618Z,99840.45
2023-04-11T21:45:05.713Z,99841.13
2023-04-11T21:47:10.741Z,99839.09
2023-04-11T21:49:15.705Z,99841.83
2023-04-11T21:51:20.725Z,99835.48
2023-04-11T21:53:25.988Z,99833.41
2023-04-11T21:55:31.056Z,99835.61
2023-04-11T21:57:36.102Z,99831.89
2023-04-11T21:59:41.100Z,99834.6
2023-04-11T22:01:46.291Z,99831.98
2023-04-11T22:03:52.323Z,99833.94
2023-04-11T22:05:57.675Z,99830.46
2023-04-11T22:08:02.682Z,99836.13
2023-04-11T22:10:07.677Z,99834.38
2023-04-11T22:12:12.717Z,99835.25
2023-04-11T22:14:17.761Z,99835.89
2023-04-11T22:16:23.165Z,99839.14
2023-04-11T22:18:28.275Z,99839.77
2023-04-11T22:20:33.250Z,99843.03
2023-04-11T22:22:38.259Z,99847.16
2023-04-11T22:24:43.310Z,99844.33
2023-04-11T22:26:48.297Z,99846.05
2023-04-11T22:28:53.324Z,99849.08
2023-04-11T22:30:58.403Z,99849.56
2023-04-11T22:33:03.534Z,99850.9
2023-04-11T22:35:08.730Z,99849.38
2023-04-11T22:37:13.740Z,99850.97
2023-04-11T22:39:18.773Z,99853.77
2023-04-11T22:41:23.822Z,99854.95
2023-04-11T22:43:28.810Z,99851.36
2023-04-11T22:45:33.901Z,99850.67
2023-04-11T22:47:39.149Z,99852.69
2023-04-11T22:49:44.267Z,99856.15
2023-04-11T22:51:49.367Z,99855.73
2023-04-11T22:53:54.386Z,99854.53
2023-04-11T22:55:59.804Z,99854.69
2023-04-11T22:58:04.773Z,99856.98
2023-04-11T23:00:09.973Z,99859.7
2023-04-11T23:02:15.368Z,99860.64
2023-04-11T23:04:20.788Z,99860.35
2023-04-11T23:06:26.224Z,99855.51
2023-04-11T23:08:31.226Z,99855.47
2023-04-11T23:10:36.277Z,99851.55
2023-04-11T23:12:41.305Z,99849.92
2023-04-11T23:14:46.315Z,99849.3
2023-04-11T23:16:51.412Z,99847.56
2023-04-11T23:18:56.743Z,99851.88
2023-04-11T23:21:01.909Z,99845
2023-04-11T23:23:06.929Z,99847.14
2023-04-11T23:25:11.965Z,99842.56
2023-04-11T23:27:17.021Z,99842.05
2023-04-11T23:29:22.055Z,99840.45
2023-04-11T23:31:27.486Z,99838.7
2023-04-11T23:33:32.672Z,99834.53
2023-04-11T23:35:37.714Z,99830.82
2023-04-11T23:37:42.890Z,99826.73
2023-04-11T23:39:47.910Z,99822.83
2023-04-11T23:41:52.953Z,99822.34
2023-04-11T23:43:58.400Z,99817.27
2023-04-11T23:46:04.011Z,99822.91
2023-04-11T23:48:09.124Z,99823.23
2023-04-11T23:50:14.346Z,99820.92
2023-04-11T23:52:19.422Z,99817.31
2023-04-11T23:54:24.454Z,99816.57
2023-04-11T23:56:30.541Z,99818.84
2023-04-11T23:58:35.638Z,99822.72
